Time,TemperatureF,DewpointF,PressureIn,WindDirection,WindDirectionDegrees,WindSpeedMPH,WindSpeedGustMPH,Humidity,HourlyPrecipIn,Conditions,Clouds,dailyrainin,SolarRadiationWatts/m^2,SoftwareType,DateUTC
2013-01-31 00:00:00,56.0,56.0,29.23,NE,45,11.0,16.0,100,-99.99,,,0.62,0.00,VWS V14.01,2013-01-31 05:00:00,
2013-01-31 00:03:00,56.0,55.7,29.22,ENE,68,10.0,15.0,99,-99.99,,,0.00,0.00,VWS V14.01,2013-01-31 05:03:00,
2013-01-31 00:08:00,56.0,55.7,29.22,East,90,8.0,12.0,99,-99.99,,,0.01,0.00,VWS V14.01,2013-01-31 05:08:00,
2013-01-31 00:13:00,56.0,55.7,29.21,NE,45,16.0,16.0,99,-99.99,,,0.02,0.00,VWS V14.01,2013-01-31 05:13:00,
2013-01-31 00:18:00,56.0,55.7,29.21,NNE,22,15.0,16.0,99,-99.99,,,0.02,0.00,VWS V14.01,2013-01-31 05:18:00,
2013-01-31 00:23:00,56.0,55.5,29.20,ENE,68,19.0,20.0,98,-99.99,,,0.04,0.00,VWS V14.01,2013-01-31 05:23:00,
2013-01-31 00:28:00,56.0,55.5,29.20,ENE,68,10.0,17.0,98,-99.99,,,0.04,0.00,VWS V14.01,2013-01-31 05:28:00,
2013-01-31 00:33:00,56.0,55.5,29.19,ENE,68,7.0,12.0,98,-99.99,,,0.06,0.00,VWS V14.01,2013-01-31 05:33:00,
2013-01-31 00:38:00,56.0,55.5,29.19,NNE,22,10.0,15.0,98,-99.99,,,0.07,0.00,VWS V14.01,2013-01-31 05:38:00,
2013-01-31 00:43:00,56.0,55.5,29.18,NE,45,4.0,9.0,98,-99.99,,,0.08,0.00,VWS V14.01,2013-01-31 05:43:00,
2013-01-31 00:48:00,56.0,55.7,29.17,East,90,5.0,8.0,99,-99.99,,,0.10,0.00,VWS V14.01,2013-01-31 05:48:00,
2013-01-31 00:53:00,56.0,55.7,29.15,East,90,9.0,9.0,99,-99.99,,,0.12,0.00,VWS V14.01,2013-01-31 05:53:00,
2013-01-31 00:58:00,56.0,55.7,29.14,ENE,68,13.0,16.0,99,-99.99,,,0.12,0.00,VWS V14.01,2013-01-31 05:58:00,
2013-01-31 01:03:00,56.0,55.7,29.15,East,90,7.0,13.0,99,-99.99,,,0.14,0.00,VWS V14.01,2013-01-31 06:03:00,
2013-01-31 01:08:00,56.0,55.7,29.15,ENE,68,7.0,12.0,99,-99.99,,,0.14,0.00,VWS V14.01,2013-01-31 06:08:00,
2013-01-31 01:13:00,56.0,55.7,29.14,ENE,68,9.0,12.0,99,-99.99,,,0.16,0.00,VWS V14.01,2013-01-31 06:13:00,
2013-01-31 01:18:00,56.0,55.7,29.13,ENE,68,9.0,9.0,99,-99.99,,,0.16,0.00,VWS V14.01,2013-01-31 06:18:00,
2013-01-31 01:23:00,56.0,55.7,29.12,NNE,22,5.0,9.0,99,-99.99,,,0.18,0.00,VWS V14.01,2013-01-31 06:23:00,
2013-01-31 01:28:00,56.0,55.7,29.13,NNE,22,5.0,6.0,99,-99.99,,,0.19,0.00,VWS V14.01,2013-01-31 06:28:00,
2013-01-31 01:33:00,56.0,55.7,29.13,SE,135,7.0,10.0,99,-99.99,,,0.20,0.00,VWS V14.01,2013-01-31 06:33:00,
2013-01-31 01:38:00,56.0,55.7,29.13,ENE,68,6.0,7.0,99,-99.99,,,0.20,0.00,VWS V14.01,2013-01-31 06:38:00,
2013-01-31 01:43:00,56.0,55.7,29.13,ENE,68,1.0,2.0,99,-99.99,,,0.20,0.00,VWS V14.01,2013-01-31 06:43:00,
2013-01-31 01:48:00,56.0,55.5,29.14,SE,135,4.0,4.0,98,-99.99,,,0.22,0.00,VWS V14.01,2013-01-31 06:48:00,
2013-01-31 01:53:00,56.0,55.5,29.11,SSE,158,2.0,7.0,98,-99.99,,,0.22,0.00,VWS V14.01,2013-01-31 06:53:00,
2013-01-31 01:58:00,56.0,55.7,29.10,South,180,5.0,7.0,99,-99.99,,,0.23,0.00,VWS V14.01,2013-01-31 06:58:00,
2013-01-31 02:03:00,56.0,55.7,29.10,ESE,112,4.0,7.0,99,-99.99,,,0.23,0.00,VWS V14.01,2013-01-31 07:03:00,
2013-01-31 02:08:00,56.0,55.7,29.13,SSW,202,12.0,18.0,99,-99.99,,,0.26,0.00,VWS V14.01,2013-01-31 07:08:00,
2013-01-31 02:14:00,56.0,55.7,29.14,South,180,8.0,13.0,99,-99.99,,,0.26,0.00,VWS V14.01,2013-01-31 07:14:00,
2013-01-31 02:19:00,55.0,55.0,29.15,SE,135,6.0,13.0,100,-99.99,,,0.26,0.00,VWS V14.01,2013-01-31 07:19:00,
2013-01-31 02:24:00,55.0,55.0,29.15,SW,225,7.0,10.0,100,-99.99,,,0.27,0.00,VWS V14.01,2013-01-31 07:24:00,
2013-01-31 02:29:00,55.0,55.0,29.15,WSW,248,9.0,22.0,100,-99.99,,,0.28,0.00,VWS V14.01,2013-01-31 07:29:00,
2013-01-31 02:34:00,55.0,55.0,29.13,WSW,248,5.0,12.0,100,-99.99,,,0.30,0.00,VWS V14.01,2013-01-31 07:34:00,
2013-01-31 02:39:00,54.0,54.0,29.13,SSE,158,10.0,12.0,100,-99.99,,,0.31,0.00,VWS V14.01,2013-01-31 07:39:00,
2013-01-31 02:44:00,54.0,54.0,29.14,SSE,158,15.0,21.0,100,-99.99,,,0.32,0.00,VWS V14.01,2013-01-31 07:44:00,
2013-01-31 02:49:00,54.0,53.7,29.15,SSE,158,16.0,17.0,99,-99.99,,,0.33,0.00,VWS V14.01,2013-01-31 07:49:00,
2013-01-31 02:54:00,54.0,53.5,29.12,SE,135,6.0,11.0,98,-99.99,,,0.34,0.00,VWS V14.01,2013-01-31 07:54:00,
2013-01-31 02:59:00,54.0,53.7,29.11,ESE,112,4.0,7.0,99,-99.99,,,0.34,0.00,VWS V14.01,2013-01-31 07:59:00,
2013-01-31 03:04:00,54.0,53.7,29.10,SSE,158,5.0,7.0,99,-99.99,,,0.35,0.00,VWS V14.01,2013-01-31 08:04:00,
2013-01-31 03:09:00,54.0,53.7,29.10,South,180,11.0,13.0,99,-99.99,,,0.35,0.00,VWS V14.01,2013-01-31 08:09:00,
2013-01-31 03:14:00,54.0,53.7,29.09,SSE,158,16.0,18.0,99,-99.99,,,0.36,0.00,VWS V14.01,2013-01-31 08:14:00,
2013-01-31 03:19:00,54.0,53.7,29.10,SSE,158,6.0,11.0,99,-99.99,,,0.36,0.00,VWS V14.01,2013-01-31 08:19:00,
2013-01-31 03:24:00,54.0,54.0,29.10,SSE,158,4.0,6.0,100,-99.99,,,0.36,0.00,VWS V14.01,2013-01-31 08:24:00,
2013-01-31 03:29:00,54.0,54.0,29.10,South,180,3.0,6.0,100,-99.99,,,0.37,0.00,VWS V14.01,2013-01-31 08:29:00,
2013-01-31 03:34:00,54.0,54.0,29.11,SSW,202,7.0,13.0,100,-99.99,,,0.39,0.00,VWS V14.01,2013-01-31 08:34:00,
2013-01-31 03:39:00,53.0,53.0,29.11,SSW,202,22.0,29.0,100,-99.99,,,0.41,0.00,VWS V14.01,2013-01-31 08:39:00,
2013-01-31 03:44:00,52.0,51.7,29.11,SSE,158,14.0,33.0,99,-99.99,,,0.42,0.00,VWS V14.01,2013-01-31 08:44:00,
2013-01-31 03:49:00,52.0,51.2,29.12,SW,225,13.0,29.0,97,-99.99,,,0.44,0.00,VWS V14.01,2013-01-31 08:49:00,
2013-01-31 03:54:00,51.0,50.2,29.13,SSW,202,16.0,26.0,97,-99.99,,,0.44,0.00,VWS V14.01,2013-01-31 08:54:00,
2013-01-31 03:59:00,51.0,49.9,29.13,WSW,248,12.0,24.0,96,-99.99,,,0.44,0.00,VWS V14.01,2013-01-31 08:59:00,
2013-01-31 04:04:00,51.0,49.3,29.13,SW,225,10.0,12.0,94,-99.99,,,0.44,0.00,VWS V14.01,2013-01-31 09:04:00,
2013-01-31 04:09:00,50.0,47.8,29.15,SW,225,12.0,20.0,92,-99.99,,,0.44,0.00,VWS V14.01,2013-01-31 09:09:00,
2013-01-31 04:14:00,50.0,47.5,29.16,SW,225,17.0,23.0,91,-99.99,,,0.44,0.00,VWS V14.01,2013-01-31 09:14:00,
2013-01-31 04:19:00,49.0,45.9,29.17,SW,225,25.0,32.0,89,-99.99,,,0.44,0.00,VWS V14.01,2013-01-31 09:19:00,
2013-01-31 04:24:00,47.0,43.3,29.18,WSW,248,12.0,28.0,87,-99.99,,,0.44,0.00,VWS V14.01,2013-01-31 09:24:00,
2013-01-31 04:29:00,47.0,41.8,29.17,West,270,19.0,31.0,82,-99.99,,,0.44,0.00,VWS V14.01,2013-01-31 09:29:00,
2013-01-31 04:34:00,46.0,41.1,29.18,SW,225,16.0,22.0,83,-99.99,,,0.44,0.00,VWS V14.01,2013-01-31 09:34:00,
2013-01-31 04:39:00,46.0,40.8,29.18,WSW,248,18.0,18.0,82,-99.99,,,0.44,0.00,VWS V14.01,2013-01-31 09:39:00,
2013-01-31 04:44:00,45.0,39.8,29.18,West,270,12.0,21.0,82,-99.99,,,0.44,0.00,VWS V14.01,2013-01-31 09:44:00,
2013-01-31 04:49:00,45.0,39.2,29.20,SW,225,13.0,22.0,80,-99.99,,,0.44,0.00,VWS V14.01,2013-01-31 09:49:00,
2013-01-31 04:54:00,45.0,39.2,29.21,SSW,202,16.0,26.0,80,-99.99,,,0.44,0.00,VWS V14.01,2013-01-31 09:54:00,
2013-01-31 04:59:00,44.0,37.3,29.21,South,180,21.0,40.0,77,-99.99,,,0.44,0.00,VWS V14.01,2013-01-31 09:59:00,
2013-01-31 05:04:00,44.0,36.6,29.20,SW,225,16.0,30.0,75,-99.99,,,0.44,0.00,VWS V14.01,2013-01-31 10:04:00,
2013-01-31 05:09:00,44.0,36.9,29.20,SW,225,11.0,13.0,76,-99.99,,,0.44,0.00,VWS V14.01,2013-01-31 10:09:00,
2013-01-31 05:14:00,44.0,37.6,29.21,SSW,202,13.0,19.0,78,-99.99,,,0.44,0.00,VWS V14.01,2013-01-31 10:14:00,
2013-01-31 05:19:00,44.0,37.6,29.21,SW,225,18.0,25.0,78,-99.99,,,0.44,0.00,VWS V14.01,2013-01-31 10:19:00,
2013-01-31 05:24:00,44.0,36.9,29.22,South,180,19.0,31.0,76,-99.99,,,0.44,0.00,VWS V14.01,2013-01-31 10:24:00,
2013-01-31 05:29:00,43.0,35.6,29.23,WSW,248,21.0,26.0,75,-99.99,,,0.44,0.00,VWS V14.01,2013-01-31 10:29:00,
2013-01-31 05:34:00,43.0,35.3,29.24,South,180,18.0,20.0,74,-99.99,,,0.44,0.00,VWS V14.01,2013-01-31 10:34:00,
2013-01-31 05:39:00,43.0,34.6,29.24,South,180,7.0,24.0,72,-99.99,,,0.44,0.00,VWS V14.01,2013-01-31 10:39:00,
2013-01-31 05:44:00,43.0,35.0,29.25,SW,225,16.0,22.0,73,-99.99,,,0.44,0.00,VWS V14.01,2013-01-31 10:44:00,
2013-01-31 05:49:00,43.0,35.0,29.26,SSW,202,29.0,36.0,73,-99.99,,,0.44,0.00,VWS V14.01,2013-01-31 10:49:00,
2013-01-31 05:54:00,43.0,35.0,29.27,South,180,14.0,20.0,73,-99.99,,,0.44,0.00,VWS V14.01,2013-01-31 10:54:00,
2013-01-31 05:59:00,42.0,33.6,29.27,South,180,19.0,28.0,72,-99.99,,,0.44,0.00,VWS V14.01,2013-01-31 10:59:00,
2013-01-31 06:04:00,42.0,33.6,29.27,WSW,248,16.0,22.0,72,-99.99,,,0.44,0.00,VWS V14.01,2013-01-31 11:04:00,
2013-01-31 06:09:00,42.0,33.6,29.28,SSW,202,15.0,20.0,72,-99.99,,,0.44,0.00,VWS V14.01,2013-01-31 11:09:00,
2013-01-31 06:14:00,42.0,33.3,29.29,SSW,202,31.0,32.0,71,-99.99,,,0.44,0.00,VWS V14.01,2013-01-31 11:14:00,
2013-01-31 06:19:00,41.0,32.0,29.29,WSW,248,22.0,30.0,70,-99.99,,,0.44,0.00,VWS V14.01,2013-01-31 11:19:00,
2013-01-31 06:24:00,41.0,32.0,29.30,SW,225,14.0,30.0,70,-99.99,,,0.44,0.00,VWS V14.01,2013-01-31 11:24:00,
2013-01-31 06:29:00,40.0,31.4,29.31,SSW,202,10.0,24.0,71,-99.99,,,0.44,0.00,VWS V14.01,2013-01-31 11:29:00,
2013-01-31 06:34:00,40.0,31.4,29.31,SW,225,19.0,26.0,71,-99.99,,,0.44,0.00,VWS V14.01,2013-01-31 11:34:00,
2013-01-31 06:39:00,40.0,31.4,29.32,SSW,202,17.0,29.0,71,-99.99,,,0.44,0.00,VWS V14.01,2013-01-31 11:39:00,
2013-01-31 06:44:00,40.0,31.0,29.32,SW,225,15.0,20.0,70,-99.99,,,0.44,0.00,VWS V14.01,2013-01-31 11:44:00,
2013-01-31 06:49:00,40.0,31.0,29.32,SW,225,16.0,23.0,70,-99.99,,,0.44,0.00,VWS V14.01,2013-01-31 11:49:00,
2013-01-31 06:54:00,40.0,31.4,29.32,SSW,202,19.0,22.0,71,-99.99,,,0.44,0.00,VWS V14.01,2013-01-31 11:54:00,
2013-01-31 06:59:00,40.0,31.0,29.32,SSW,202,17.0,24.0,70,-99.99,,,0.44,0.00,VWS V14.01,2013-01-31 11:59:00,
2013-01-31 07:04:00,39.0,30.4,29.32,SSW,202,25.0,34.0,71,-99.99,,,0.44,0.00,VWS V14.01,2013-01-31 12:04:00,
2013-01-31 07:09:00,39.0,30.4,29.33,SW,225,19.0,19.0,71,-99.99,,,0.44,0.00,VWS V14.01,2013-01-31 12:09:00,
2013-01-31 07:14:00,39.0,30.1,29.34,SSW,202,14.0,23.0,70,-99.99,,,0.44,0.00,VWS V14.01,2013-01-31 12:14:00,
2013-01-31 07:19:00,39.0,29.4,29.35,SW,225,32.0,42.0,68,-99.99,,,0.44,0.00,VWS V14.01,2013-01-31 12:19:00,
2013-01-31 07:24:00,39.0,29.4,29.35,SSW,202,18.0,27.0,68,-99.99,,,0.44,10.00,VWS V14.01,2013-01-31 12:24:00,
2013-01-31 07:29:00,39.0,29.4,29.36,SW,225,35.0,35.0,68,-99.99,,,0.44,10.00,VWS V14.01,2013-01-31 12:29:00,
2013-01-31 07:34:00,38.0,28.4,29.36,WSW,248,10.0,24.0,68,-99.99,,,0.44,20.00,VWS V14.01,2013-01-31 12:34:00,
2013-01-31 07:39:00,38.0,28.4,29.37,SSW,202,14.0,25.0,68,-99.99,,,0.44,20.00,VWS V14.01,2013-01-31 12:39:00,
2013-01-31 07:44:00,38.0,28.0,29.37,SSW,202,28.0,33.0,67,-99.99,,,0.44,20.00,VWS V14.01,2013-01-31 12:44:00,
2013-01-31 07:49:00,38.0,28.4,29.38,SW,225,8.0,23.0,68,-99.99,,,0.44,90.00,VWS V14.01,2013-01-31 12:49:00,
2013-01-31 07:54:00,38.0,28.8,29.39,SSW,202,17.0,30.0,69,-99.99,,,0.44,10.00,VWS V14.01,2013-01-31 12:54:00,
2013-01-31 07:59:00,38.0,29.5,29.39,SSW,202,7.0,15.0,71,-99.99,,,0.44,30.00,VWS V14.01,2013-01-31 12:59:00,
2013-01-31 08:04:00,37.0,28.1,29.39,WSW,248,25.0,31.0,70,-99.99,,,0.44,50.00,VWS V14.01,2013-01-31 13:04:00,
2013-01-31 08:09:00,37.0,28.5,29.40,SSW,202,17.0,19.0,71,-99.99,,,0.44,50.00,VWS V14.01,2013-01-31 13:09:00,
2013-01-31 08:14:00,37.0,28.1,29.40,SW,225,32.0,35.0,70,-99.99,,,0.44,40.00,VWS V14.01,2013-01-31 13:14:00,
2013-01-31 08:19:00,37.0,28.1,29.40,SSW,202,9.0,24.0,70,-99.99,,,0.44,190.00,VWS V14.01,2013-01-31 13:19:00,
2013-01-31 08:24:00,37.0,27.8,29.40,SSW,202,15.0,17.0,69,-99.99,,,0.44,220.00,VWS V14.01,2013-01-31 13:24:00,
2013-01-31 08:29:00,38.0,27.7,29.41,SW,225,16.0,20.0,66,-99.99,,,0.44,230.00,VWS V14.01,2013-01-31 13:29:00,
2013-01-31 08:34:00,38.0,26.9,29.41,SSW,202,18.0,25.0,64,-99.99,,,0.44,220.00,VWS V14.01,2013-01-31 13:34:00,
2013-01-31 08:39:00,38.0,25.8,29.42,WSW,248,16.0,37.0,61,-99.99,,,0.44,50.00,VWS V14.01,2013-01-31 13:39:00,
2013-01-31 08:44:00,38.0,25.8,29.43,SSW,202,21.0,28.0,61,-99.99,,,0.44,90.00,VWS V14.01,2013-01-31 13:44:00,
2013-01-31 08:49:00,38.0,25.0,29.43,SW,225,22.0,28.0,59,-99.99,,,0.44,90.00,VWS V14.01,2013-01-31 13:49:00,
2013-01-31 08:54:00,37.0,24.4,29.43,SW,225,21.0,29.0,60,-99.99,,,0.44,80.00,VWS V14.01,2013-01-31 13:54:00,
2013-01-31 08:59:00,37.0,24.4,29.43,WSW,248,18.0,21.0,60,-99.99,,,0.44,50.00,VWS V14.01,2013-01-31 13:59:00,
2013-01-31 09:04:00,37.0,23.6,29.43,WNW,292,18.0,42.0,58,-99.99,,,0.44,70.00,VWS V14.01,2013-01-31 14:04:00,
2013-01-31 09:09:00,37.0,24.8,29.44,WSW,248,15.0,28.0,61,-99.99,,,0.44,100.00,VWS V14.01,2013-01-31 14:09:00,
2013-01-31 09:14:00,37.0,24.4,29.45,SSW,202,22.0,31.0,60,-99.99,,,0.44,80.00,VWS V14.01,2013-01-31 14:14:00,
2013-01-31 09:19:00,37.0,24.4,29.45,WSW,248,16.0,27.0,60,-99.99,,,0.44,60.00,VWS V14.01,2013-01-31 14:19:00,
2013-01-31 09:24:00,37.0,25.2,29.45,WSW,248,11.0,21.0,62,-99.99,,,0.44,70.00,VWS V14.01,2013-01-31 14:24:00,
2013-01-31 09:29:00,37.0,25.6,29.46,SW,225,22.0,30.0,63,-99.99,,,0.44,220.00,VWS V14.01,2013-01-31 14:29:00,
2013-01-31 09:34:00,37.0,25.2,29.46,SSW,202,25.0,26.0,62,-99.99,,,0.44,50.00,VWS V14.01,2013-01-31 14:34:00,
2013-01-31 09:39:00,36.0,24.3,29.46,WSW,248,32.0,36.0,62,-99.99,,,0.44,70.00,VWS V14.01,2013-01-31 14:39:00,
2013-01-31 09:44:00,36.0,24.6,29.46,SW,225,12.0,25.0,63,-99.99,,,0.44,60.00,VWS V14.01,2013-01-31 14:44:00,
2013-01-31 09:49:00,36.0,25.0,29.46,SSW,202,19.0,25.0,64,-99.99,,,0.44,100.00,VWS V14.01,2013-01-31 14:49:00,
2013-01-31 09:54:00,36.0,25.0,29.47,WSW,248,11.0,17.0,64,-99.99,,,0.44,110.00,VWS V14.01,2013-01-31 14:54:00,
2013-01-31 09:59:00,36.0,25.0,29.47,WSW,248,8.0,21.0,64,-99.99,,,0.44,90.00,VWS V14.01,2013-01-31 14:59:00,
2013-01-31 10:04:00,37.0,26.0,29.47,West,270,17.0,26.0,64,-99.99,,,0.44,70.00,VWS V14.01,2013-01-31 15:04:00,
2013-01-31 10:09:00,37.0,25.6,29.47,SSW,202,13.0,18.0,63,-99.99,,,0.44,80.00,VWS V14.01,2013-01-31 15:09:00,
2013-01-31 10:14:00,37.0,26.0,29.47,West,270,13.0,14.0,64,-99.99,,,0.44,100.00,VWS V14.01,2013-01-31 15:14:00,
2013-01-31 10:19:00,36.0,24.6,29.47,WSW,248,32.0,39.0,63,-99.99,,,0.44,100.00,VWS V14.01,2013-01-31 15:19:00,
2013-01-31 10:24:00,36.0,25.0,29.48,SSW,202,25.0,34.0,64,-99.99,,,0.44,60.00,VWS V14.01,2013-01-31 15:24:00,
2013-01-31 10:29:00,36.0,25.4,29.49,SW,225,13.0,23.0,65,-99.99,,,0.44,40.00,VWS V14.01,2013-01-31 15:29:00,
2013-01-31 10:34:00,35.0,26.6,29.49,SW,225,16.0,31.0,71,-99.99,,,0.44,70.00,VWS V14.01,2013-01-31 15:34:00,
2013-01-31 10:39:00,35.0,25.9,29.49,SSW,202,5.0,17.0,69,-99.99,,,0.44,160.00,VWS V14.01,2013-01-31 15:39:00,
2013-01-31 10:44:00,36.0,26.1,29.49,SE,135,9.0,26.0,67,-99.99,,,0.44,120.00,VWS V14.01,2013-01-31 15:44:00,
2013-01-31 10:49:00,36.0,25.0,29.50,SSW,202,6.0,26.0,64,-99.99,,,0.44,460.00,VWS V14.01,2013-01-31 15:49:00,
2013-01-31 10:54:00,37.0,24.8,29.49,SE,135,14.0,26.0,61,-99.99,,,0.44,440.00,VWS V14.01,2013-01-31 15:54:00,
2013-01-31 10:59:00,37.0,25.2,29.50,SSW,202,31.0,31.0,62,-99.99,,,0.44,450.00,VWS V14.01,2013-01-31 15:59:00,
2013-01-31 11:04:00,37.0,25.2,29.51,WSW,248,23.0,29.0,62,-99.99,,,0.44,490.00,VWS V14.01,2013-01-31 16:04:00,
2013-01-31 11:09:00,37.0,24.8,29.50,SW,225,10.0,16.0,61,-99.99,,,0.44,390.00,VWS V14.01,2013-01-31 16:09:00,
2013-01-31 11:14:00,37.0,23.2,29.51,SW,225,44.0,46.0,57,-99.99,,,0.44,550.00,VWS V14.01,2013-01-31 16:14:00,
2013-01-31 11:19:00,37.0,23.6,29.51,SW,225,15.0,37.0,58,-99.99,,,0.44,560.00,VWS V14.01,2013-01-31 16:19:00,
2013-01-31 11:24:00,37.0,24.0,29.51,SW,225,24.0,36.0,59,-99.99,,,0.44,600.00,VWS V14.01,2013-01-31 16:24:00,
2013-01-31 11:29:00,37.0,24.0,29.51,SSW,202,37.0,37.0,59,-99.99,,,0.44,500.00,VWS V14.01,2013-01-31 16:29:00,
2013-01-31 11:34:00,37.0,23.6,29.51,SSW,202,18.0,30.0,58,-99.99,,,0.44,480.00,VWS V14.01,2013-01-31 16:34:00,
2013-01-31 11:39:00,36.0,23.1,29.51,WSW,248,25.0,36.0,59,-99.99,,,0.44,460.00,VWS V14.01,2013-01-31 16:39:00,
2013-01-31 11:44:00,36.0,23.1,29.52,SSW,202,28.0,35.0,59,-99.99,,,0.44,490.00,VWS V14.01,2013-01-31 16:44:00,
2013-01-31 11:49:00,37.0,24.8,29.52,SSW,202,16.0,23.0,61,-99.99,,,0.44,180.00,VWS V14.01,2013-01-31 16:49:00,
2013-01-31 11:54:00,36.0,23.1,29.53,SW,225,28.0,29.0,59,-99.99,,,0.44,130.00,VWS V14.01,2013-01-31 16:54:00,
2013-01-31 11:59:00,35.0,22.5,29.53,SSW,202,25.0,29.0,60,-99.99,,,0.44,270.00,VWS V14.01,2013-01-31 16:59:00,
2013-01-31 12:04:00,35.0,22.5,29.52,WSW,248,17.0,31.0,60,-99.99,,,0.44,460.00,VWS V14.01,2013-01-31 17:04:00,
2013-01-31 12:09:00,36.0,23.5,29.53,SSW,202,24.0,27.0,60,-99.99,,,0.44,480.00,VWS V14.01,2013-01-31 17:09:00,
2013-01-31 12:14:00,37.0,24.0,29.52,SW,225,19.0,23.0,59,-99.99,,,0.44,290.00,VWS V14.01,2013-01-31 17:14:00,
2013-01-31 12:19:00,37.0,23.2,29.52,SSW,202,19.0,28.0,57,-99.99,,,0.44,390.00,VWS V14.01,2013-01-31 17:19:00,
2013-01-31 12:24:00,37.0,21.9,29.53,WSW,248,9.0,29.0,54,-99.99,,,0.44,300.00,VWS V14.01,2013-01-31 17:24:00,
2013-01-31 12:29:00,36.0,21.4,29.53,SW,225,16.0,30.0,55,-99.99,,,0.44,70.00,VWS V14.01,2013-01-31 17:29:00,
2013-01-31 12:34:00,36.0,22.3,29.53,SW,225,15.0,28.0,57,-99.99,,,0.44,120.00,VWS V14.01,2013-01-31 17:34:00,
2013-01-31 12:39:00,35.0,21.3,29.53,SSW,202,22.0,33.0,57,-99.99,,,0.44,380.00,VWS V14.01,2013-01-31 17:39:00,
2013-01-31 12:44:00,36.0,22.3,29.53,SW,225,23.0,35.0,57,-99.99,,,0.44,230.00,VWS V14.01,2013-01-31 17:44:00,
2013-01-31 12:49:00,36.0,21.0,29.54,SSW,202,19.0,37.0,54,-99.99,,,0.44,290.00,VWS V14.01,2013-01-31 17:49:00,
2013-01-31 12:54:00,35.0,19.6,29.54,SSW,202,21.0,33.0,53,-99.99,,,0.44,240.00,VWS V14.01,2013-01-31 17:54:00,
2013-01-31 12:59:00,36.0,19.6,29.55,SSW,202,27.0,37.0,51,-99.99,,,0.44,230.00,VWS V14.01,2013-01-31 17:59:00,
2013-01-31 13:04:00,36.0,19.6,29.55,SW,225,20.0,33.0,51,-99.99,,,0.44,410.00,VWS V14.01,2013-01-31 18:04:00,
2013-01-31 13:09:00,35.0,18.7,29.55,SW,225,13.0,27.0,51,-99.99,,,0.44,130.00,VWS V14.01,2013-01-31 18:09:00,
2013-01-31 13:14:00,35.0,18.2,29.56,SW,225,13.0,29.0,50,-99.99,,,0.44,90.00,VWS V14.01,2013-01-31 18:14:00,
2013-01-31 13:19:00,35.0,18.7,29.55,SW,225,32.0,33.0,51,-99.99,,,0.44,120.00,VWS V14.01,2013-01-31 18:19:00,
2013-01-31 13:24:00,35.0,19.2,29.56,SW,225,14.0,26.0,52,-99.99,,,0.44,150.00,VWS V14.01,2013-01-31 18:24:00,
2013-01-31 13:29:00,35.0,18.7,29.56,SSW,202,22.0,28.0,51,-99.99,,,0.44,130.00,VWS V14.01,2013-01-31 18:29:00,
2013-01-31 13:34:00,35.0,18.2,29.56,SW,225,15.0,31.0,50,-99.99,,,0.44,140.00,VWS V14.01,2013-01-31 18:34:00,
2013-01-31 13:39:00,34.0,18.2,29.56,SW,225,20.0,33.0,52,-99.99,,,0.44,140.00,VWS V14.01,2013-01-31 18:39:00,
2013-01-31 13:44:00,34.0,17.8,29.57,SSW,202,21.0,28.0,51,-99.99,,,0.44,90.00,VWS V14.01,2013-01-31 18:44:00,
2013-01-31 13:49:00,34.0,16.9,29.57,SW,225,21.0,31.0,49,-99.99,,,0.44,110.00,VWS V14.01,2013-01-31 18:49:00,
2013-01-31 13:54:00,34.0,15.4,29.57,South,180,24.0,43.0,46,-99.99,,,0.44,470.00,VWS V14.01,2013-01-31 18:54:00,
2013-01-31 13:59:00,34.0,15.4,29.58,SSE,158,10.0,36.0,46,-99.99,,,0.44,200.00,VWS V14.01,2013-01-31 18:59:00,
2013-01-31 14:04:00,34.0,15.4,29.58,SSW,202,22.0,30.0,46,-99.99,,,0.44,110.00,VWS V14.01,2013-01-31 19:04:00,
2013-01-31 14:09:00,34.0,15.9,29.58,SW,225,19.0,30.0,47,-99.99,,,0.44,90.00,VWS V14.01,2013-01-31 19:09:00,
2013-01-31 14:14:00,34.0,17.3,29.58,SW,225,5.0,29.0,50,-99.99,,,0.44,120.00,VWS V14.01,2013-01-31 19:14:00,
2013-01-31 14:19:00,33.0,17.3,29.59,SSW,202,20.0,26.0,52,-99.99,,,0.44,150.00,VWS V14.01,2013-01-31 19:19:00,
2013-01-31 14:24:00,33.0,18.2,29.59,South,180,14.0,21.0,54,-99.99,,,0.44,230.00,VWS V14.01,2013-01-31 19:24:00,
2013-01-31 14:29:00,33.0,18.2,29.59,SSW,202,20.0,42.0,54,-99.99,,,0.44,200.00,VWS V14.01,2013-01-31 19:29:00,
2013-01-31 14:34:00,32.0,18.5,29.60,SW,225,31.0,42.0,57,-99.99,,,0.44,140.00,VWS V14.01,2013-01-31 19:34:00,
2013-01-31 14:39:00,32.0,18.9,29.60,South,180,17.0,31.0,58,-99.99,,,0.44,310.00,VWS V14.01,2013-01-31 19:39:00,
2013-01-31 14:44:00,32.0,17.7,29.61,SSW,202,25.0,28.0,55,-99.99,,,0.44,100.00,VWS V14.01,2013-01-31 19:44:00,
2013-01-31 14:49:00,32.0,18.5,29.61,SW,225,19.0,35.0,57,-99.99,,,0.44,120.00,VWS V14.01,2013-01-31 19:49:00,
2013-01-31 14:54:00,32.0,19.7,29.62,SSW,202,16.0,25.0,60,-99.99,,,0.44,150.00,VWS V14.01,2013-01-31 19:54:00,
2013-01-31 14:59:00,31.0,19.9,29.62,South,180,11.0,31.0,63,-99.99,,,0.44,160.00,VWS V14.01,2013-01-31 19:59:00,
2013-01-31 15:04:00,31.0,19.5,29.63,SSW,202,20.0,32.0,62,-99.99,,,0.44,130.00,VWS V14.01,2013-01-31 20:04:00,
2013-01-31 15:09:00,31.0,20.6,29.63,SW,225,21.0,25.0,65,-99.99,,,0.44,320.00,VWS V14.01,2013-01-31 20:09:00,
2013-01-31 15:14:00,31.0,20.6,29.63,South,180,14.0,23.0,65,-99.99,,,0.44,80.00,VWS V14.01,2013-01-31 20:14:00,
2013-01-31 15:19:00,31.0,19.1,29.63,SSW,202,24.0,32.0,61,-99.99,,,0.44,100.00,VWS V14.01,2013-01-31 20:19:00,
2013-01-31 15:24:00,31.0,18.0,29.63,SSW,202,29.0,29.0,58,-99.99,,,0.44,150.00,VWS V14.01,2013-01-31 20:24:00,
2013-01-31 15:29:00,31.0,17.6,29.64,SSW,202,20.0,30.0,57,-99.99,,,0.44,70.00,VWS V14.01,2013-01-31 20:29:00,
2013-01-31 15:34:00,31.0,17.6,29.64,SW,225,24.0,25.0,57,-99.99,,,0.44,90.00,VWS V14.01,2013-01-31 20:34:00,
2013-01-31 15:39:00,31.0,16.7,29.64,SW,225,17.0,22.0,55,-99.99,,,0.44,90.00,VWS V14.01,2013-01-31 20:39:00,
2013-01-31 15:44:00,31.0,15.9,29.65,SW,225,17.0,27.0,53,-99.99,,,0.44,120.00,VWS V14.01,2013-01-31 20:44:00,
2013-01-31 15:49:00,32.0,16.8,29.65,South,180,10.0,23.0,53,-99.99,,,0.44,80.00,VWS V14.01,2013-01-31 20:49:00,
2013-01-31 15:54:00,32.0,16.8,29.65,SW,225,10.0,24.0,53,-99.99,,,0.44,70.00,VWS V14.01,2013-01-31 20:54:00,
2013-01-31 15:59:00,31.0,15.9,29.65,SW,225,15.0,31.0,53,-99.99,,,0.44,60.00,VWS V14.01,2013-01-31 20:59:00,
2013-01-31 16:04:00,31.0,16.3,29.65,SSW,202,14.0,26.0,54,-99.99,,,0.44,60.00,VWS V14.01,2013-01-31 21:04:00,
2013-01-31 16:09:00,31.0,17.2,29.65,SSW,202,10.0,35.0,56,-99.99,,,0.44,40.00,VWS V14.01,2013-01-31 21:09:00,
2013-01-31 16:14:00,31.0,18.8,29.65,SE,135,11.0,24.0,60,-99.99,,,0.44,60.00,VWS V14.01,2013-01-31 21:14:00,
2013-01-31 16:19:00,30.0,20.4,29.66,SW,225,20.0,26.0,67,-99.99,,,0.44,80.00,VWS V14.01,2013-01-31 21:19:00,
2013-01-31 16:24:00,29.0,20.5,29.66,SW,225,11.0,22.0,70,-99.99,,,0.44,50.00,VWS V14.01,2013-01-31 21:24:00,
2013-01-31 16:29:00,29.0,21.1,29.66,SW,225,17.0,25.0,72,-99.99,,,0.44,30.00,VWS V14.01,2013-01-31 21:29:00,
2013-01-31 16:34:00,29.0,21.4,29.66,SSW,202,9.0,18.0,73,-99.99,,,0.44,20.00,VWS V14.01,2013-01-31 21:34:00,
2013-01-31 16:39:00,29.0,21.4,29.67,SW,225,28.0,28.0,73,-99.99,,,0.44,50.00,VWS V14.01,2013-01-31 21:39:00,
2013-01-31 16:44:00,29.0,22.4,29.67,SSW,202,12.0,23.0,76,-99.99,,,0.44,30.00,VWS V14.01,2013-01-31 21:44:00,
2013-01-31 16:49:00,29.0,23.3,29.67,South,180,8.0,17.0,79,-99.99,,,0.44,20.00,VWS V14.01,2013-01-31 21:49:00,
2013-01-31 16:54:00,29.0,23.9,29.67,SW,225,15.0,22.0,81,-99.99,,,0.44,30.00,VWS V14.01,2013-01-31 21:54:00,
2013-01-31 16:59:00,29.0,23.9,29.67,SW,225,12.0,13.0,81,-99.99,,,0.44,40.00,VWS V14.01,2013-01-31 21:59:00,
2013-01-31 17:04:00,29.0,23.3,29.68,SSW,202,12.0,15.0,79,-99.99,,,0.44,20.00,VWS V14.01,2013-01-31 22:04:00,
2013-01-31 17:09:00,29.0,23.0,29.68,SSW,202,6.0,14.0,78,-99.99,,,0.44,10.00,VWS V14.01,2013-01-31 22:09:00,
2013-01-31 17:14:00,30.0,23.0,29.68,SW,225,12.0,13.0,75,-99.99,,,0.44,10.00,VWS V14.01,2013-01-31 22:14:00,
2013-01-31 17:19:00,30.0,22.7,29.68,SSE,158,5.0,7.0,74,-99.99,,,0.44,10.00,VWS V14.01,2013-01-31 22:19:00,
2013-01-31 17:24:00,30.0,21.8,29.68,SSW,202,12.0,13.0,71,-99.99,,,0.44,0.00,VWS V14.01,2013-01-31 22:24:00,
2013-01-31 17:29:00,30.0,20.4,29.68,WSW,248,7.0,25.0,67,-99.99,,,0.44,0.00,VWS V14.01,2013-01-31 22:29:00,
2013-01-31 17:34:00,30.0,20.0,29.69,SE,135,17.0,17.0,66,-99.99,,,0.44,0.00,VWS V14.01,2013-01-31 22:34:00,
2013-01-31 17:39:00,30.0,19.7,29.69,SW,225,19.0,36.0,65,-99.99,,,0.44,0.00,VWS V14.01,2013-01-31 22:39:00,
2013-01-31 17:44:00,30.0,19.7,29.70,SW,225,12.0,22.0,65,-99.99,,,0.44,0.00,VWS V14.01,2013-01-31 22:44:00,
2013-01-31 17:49:00,29.0,19.1,29.71,SW,225,13.0,42.0,66,-99.99,,,0.44,0.00,VWS V14.01,2013-01-31 22:49:00,
2013-01-31 17:54:00,28.0,18.8,29.71,SSW,202,37.0,37.0,68,-99.99,,,0.44,0.00,VWS V14.01,2013-01-31 22:54:00,
2013-01-31 17:59:00,27.0,19.8,29.71,SW,225,16.0,18.0,74,-99.99,,,0.44,0.00,VWS V14.01,2013-01-31 22:59:00,
2013-01-31 18:04:00,27.0,20.8,29.71,SW,225,24.0,25.0,77,-99.99,,,0.44,0.00,VWS V14.01,2013-01-31 23:04:00,
2013-01-31 18:09:00,27.0,20.1,29.72,SW,225,21.0,22.0,75,-99.99,,,0.44,0.00,VWS V14.01,2013-01-31 23:09:00,
2013-01-31 18:14:00,28.0,19.8,29.72,SW,225,22.0,30.0,71,-99.99,,,0.44,0.00,VWS V14.01,2013-01-31 23:14:00,
2013-01-31 18:19:00,28.0,19.2,29.73,SSW,202,22.0,24.0,69,-99.99,,,0.44,0.00,VWS V14.01,2013-01-31 23:19:00,
2013-01-31 18:24:00,28.0,18.1,29.73,SSW,202,18.0,28.0,66,-99.99,,,0.44,0.00,VWS V14.01,2013-01-31 23:24:00,
2013-01-31 18:29:00,28.0,17.4,29.73,WSW,248,15.0,15.0,64,-99.99,,,0.44,0.00,VWS V14.01,2013-01-31 23:29:00,
2013-01-31 18:34:00,28.0,16.7,29.73,SW,225,13.0,28.0,62,-99.99,,,0.44,0.00,VWS V14.01,2013-01-31 23:34:00,
2013-01-31 18:39:00,28.0,16.7,29.74,SW,225,10.0,20.0,62,-99.99,,,0.44,0.00,VWS V14.01,2013-01-31 23:39:00,
2013-01-31 18:44:00,28.0,16.3,29.74,SW,225,10.0,13.0,61,-99.99,,,0.44,0.00,VWS V14.01,2013-01-31 23:44:00,
2013-01-31 18:49:00,28.0,15.9,29.74,SW,225,16.0,21.0,60,-99.99,,,0.44,0.00,VWS V14.01,2013-01-31 23:49:00,
2013-01-31 18:54:00,28.0,15.9,29.75,South,180,13.0,18.0,60,-99.99,,,0.44,0.00,VWS V14.01,2013-01-31 23:54:00,
2013-01-31 18:59:00,28.0,16.3,29.75,SSW,202,13.0,15.0,61,-99.99,,,0.44,0.00,VWS V14.01,2013-01-31 23:59:00,
2013-01-31 19:04:00,28.0,15.9,29.75,SW,225,29.0,29.0,60,-99.99,,,0.44,0.00,VWS V14.01,2013-02-01 00:04:00,
2013-01-31 19:09:00,28.0,15.9,29.76,SSW,202,16.0,25.0,60,-99.99,,,0.44,0.00,VWS V14.01,2013-02-01 00:09:00,
2013-01-31 19:14:00,28.0,16.3,29.76,WSW,248,19.0,24.0,61,-99.99,,,0.44,0.00,VWS V14.01,2013-02-01 00:14:00,
2013-01-31 19:19:00,28.0,16.3,29.76,West,270,24.0,31.0,61,-99.99,,,0.44,0.00,VWS V14.01,2013-02-01 00:19:00,
2013-01-31 19:24:00,27.0,15.7,29.77,SW,225,16.0,29.0,62,-99.99,,,0.44,0.00,VWS V14.01,2013-02-01 00:24:00,
2013-01-31 19:29:00,28.0,16.7,29.77,SSW,202,12.0,20.0,62,-99.99,,,0.44,0.00,VWS V14.01,2013-02-01 00:29:00,
2013-01-31 19:34:00,28.0,15.9,29.77,SSW,202,13.0,22.0,60,-99.99,,,0.44,0.00,VWS V14.01,2013-02-01 00:34:00,
2013-01-31 19:39:00,27.0,14.6,29.77,SSW,202,16.0,34.0,59,-99.99,,,0.44,0.00,VWS V14.01,2013-02-01 00:39:00,
2013-01-31 19:44:00,27.0,14.6,29.77,SW,225,10.0,16.0,59,-99.99,,,0.44,0.00,VWS V14.01,2013-02-01 00:44:00,
2013-01-31 19:49:00,28.0,15.5,29.77,SW,225,12.0,19.0,59,-99.99,,,0.44,0.00,VWS V14.01,2013-02-01 00:49:00,
2013-01-31 19:54:00,27.0,14.6,29.77,SW,225,12.0,22.0,59,-99.99,,,0.44,0.00,VWS V14.01,2013-02-01 00:54:00,
2013-01-31 19:59:00,27.0,13.8,29.77,SSW,202,26.0,34.0,57,-99.99,,,0.44,0.00,VWS V14.01,2013-02-01 00:59:00,
2013-01-31 20:04:00,27.0,13.4,29.78,WSW,248,10.0,26.0,56,-99.99,,,0.44,0.00,VWS V14.01,2013-02-01 01:04:00,
2013-01-31 20:09:00,27.0,13.4,29.78,SSW,202,15.0,15.0,56,-99.99,,,0.44,0.00,VWS V14.01,2013-02-01 01:09:00,
2013-01-31 20:14:00,27.0,13.0,29.78,SW,225,16.0,30.0,55,-99.99,,,0.44,0.00,VWS V14.01,2013-02-01 01:14:00,
2013-01-31 20:19:00,27.0,13.0,29.78,SSW,202,9.0,24.0,55,-99.99,,,0.44,0.00,VWS V14.01,2013-02-01 01:19:00,
2013-01-31 20:24:00,27.0,13.4,29.78,SSW,202,13.0,20.0,56,-99.99,,,0.44,0.00,VWS V14.01,2013-02-01 01:24:00,
2013-01-31 20:29:00,27.0,13.4,29.78,SW,225,10.0,10.0,56,-99.99,,,0.44,0.00,VWS V14.01,2013-02-01 01:29:00,
2013-01-31 20:34:00,27.0,13.4,29.78,SW,225,10.0,12.0,56,-99.99,,,0.44,0.00,VWS V14.01,2013-02-01 01:34:00,
2013-01-31 20:39:00,27.0,13.4,29.78,SW,225,12.0,16.0,56,-99.99,,,0.44,0.00,VWS V14.01,2013-02-01 01:39:00,
2013-01-31 20:44:00,27.0,13.4,29.78,SSW,202,15.0,20.0,56,-99.99,,,0.44,0.00,VWS V14.01,2013-02-01 01:44:00,
2013-01-31 20:49:00,28.0,14.3,29.78,SSW,202,12.0,12.0,56,-99.99,,,0.44,0.00,VWS V14.01,2013-02-01 01:49:00,
2013-01-31 20:54:00,28.0,14.3,29.78,SSW,202,18.0,20.0,56,-99.99,,,0.44,0.00,VWS V14.01,2013-02-01 01:54:00,
2013-01-31 20:59:00,28.0,14.3,29.78,SW,225,19.0,19.0,56,-99.99,,,0.44,0.00,VWS V14.01,2013-02-01 01:59:00,
2013-01-31 21:04:00,28.0,14.3,29.78,SW,225,5.0,7.0,56,-99.99,,,0.44,0.00,VWS V14.01,2013-02-01 02:04:00,
2013-01-31 21:09:00,28.0,14.8,29.78,SSE,158,6.0,12.0,57,-99.99,,,0.44,0.00,VWS V14.01,2013-02-01 02:09:00,
2013-01-31 21:14:00,28.0,14.8,29.78,SSW,202,9.0,13.0,57,-99.99,,,0.44,0.00,VWS V14.01,2013-02-01 02:14:00,
2013-01-31 21:19:00,28.0,15.1,29.78,SSW,202,14.0,14.0,58,-99.99,,,0.44,0.00,VWS V14.01,2013-02-01 02:19:00,
2013-01-31 21:24:00,28.0,15.1,29.78,SW,225,11.0,12.0,58,-99.99,,,0.44,0.00,VWS V14.01,2013-02-01 02:24:00,
2013-01-31 21:29:00,28.0,15.5,29.78,SW,225,12.0,13.0,59,-99.99,,,0.44,0.00,VWS V14.01,2013-02-01 02:29:00,
2013-01-31 21:34:00,28.0,15.5,29.78,South,180,8.0,8.0,59,-99.99,,,0.44,0.00,VWS V14.01,2013-02-01 02:34:00,
2013-01-31 21:39:00,28.0,15.1,29.78,SSE,158,8.0,14.0,58,-99.99,,,0.44,0.00,VWS V14.01,2013-02-01 02:39:00,
2013-01-31 21:44:00,28.0,15.1,29.78,SSW,202,18.0,20.0,58,-99.99,,,0.44,0.00,VWS V14.01,2013-02-01 02:44:00,
2013-01-31 21:49:00,28.0,15.1,29.78,SE,135,2.0,3.0,58,-99.99,,,0.44,0.00,VWS V14.01,2013-02-01 02:49:00,
2013-01-31 21:54:00,28.0,15.1,29.78,SW,225,8.0,8.0,58,-99.99,,,0.44,0.00,VWS V14.01,2013-02-01 02:54:00,
2013-01-31 21:59:00,28.0,15.1,29.78,SSW,202,6.0,9.0,58,-99.99,,,0.44,0.00,VWS V14.01,2013-02-01 02:59:00,
2013-01-31 22:04:00,27.0,14.2,29.78,SSW,202,10.0,10.0,58,-99.99,,,0.44,0.00,VWS V14.01,2013-02-01 03:04:00,
2013-01-31 22:09:00,27.0,14.2,29.78,SW,225,16.0,17.0,58,-99.99,,,0.44,0.00,VWS V14.01,2013-02-01 03:09:00,
2013-01-31 22:14:00,27.0,14.2,29.78,SSW,202,16.0,19.0,58,-99.99,,,0.44,0.00,VWS V14.01,2013-02-01 03:14:00,
2013-01-31 22:19:00,27.0,14.2,29.78,WSW,248,3.0,14.0,58,-99.99,,,0.44,0.00,VWS V14.01,2013-02-01 03:19:00,
2013-01-31 22:24:00,27.0,14.2,29.78,South,180,5.0,13.0,58,-99.99,,,0.44,0.00,VWS V14.01,2013-02-01 03:24:00,
2013-01-31 22:29:00,27.0,14.6,29.78,WSW,248,2.0,2.0,59,-99.99,,,0.44,0.00,VWS V14.01,2013-02-01 03:29:00,
2013-01-31 22:34:00,27.0,14.6,29.78,SSE,158,10.0,11.0,59,-99.99,,,0.44,0.00,VWS V14.01,2013-02-01 03:34:00,
2013-01-31 22:39:00,27.0,14.2,29.78,SSE,158,5.0,15.0,58,-99.99,,,0.44,0.00,VWS V14.01,2013-02-01 03:39:00,
2013-01-31 22:44:00,27.0,14.2,29.78,SW,225,9.0,16.0,58,-99.99,,,0.44,0.00,VWS V14.01,2013-02-01 03:44:00,
2013-01-31 22:49:00,27.0,14.6,29.78,South,180,4.0,7.0,59,-99.99,,,0.44,0.00,VWS V14.01,2013-02-01 03:49:00,
2013-01-31 22:54:00,27.0,14.6,29.78,South,180,4.0,7.0,59,-99.99,,,0.44,0.00,VWS V14.01,2013-02-01 03:54:00,
2013-01-31 22:59:00,27.0,15.0,29.78,SW,225,7.0,9.0,60,-99.99,,,0.44,0.00,VWS V14.01,2013-02-01 03:59:00,
2013-01-31 23:04:00,27.0,15.4,29.78,SE,135,5.0,17.0,61,-99.99,,,0.44,0.00,VWS V14.01,2013-02-01 04:04:00,
2013-01-31 23:09:00,27.0,15.7,29.78,SSW,202,8.0,11.0,62,-99.99,,,0.44,0.00,VWS V14.01,2013-02-01 04:09:00,
2013-01-31 23:14:00,27.0,16.1,29.78,SW,225,10.0,15.0,63,-99.99,,,0.44,0.00,VWS V14.01,2013-02-01 04:14:00,
2013-01-31 23:19:00,27.0,16.8,29.79,SSW,202,8.0,15.0,65,-99.99,,,0.44,0.00,VWS V14.01,2013-02-01 04:19:00,
2013-01-31 23:24:00,27.0,17.2,29.78,SE,135,5.0,11.0,66,-99.99,,,0.44,0.00,VWS V14.01,2013-02-01 04:24:00,
2013-01-31 23:29:00,27.0,17.5,29.78,SE,135,6.0,11.0,67,-99.99,,,0.44,0.00,VWS V14.01,2013-02-01 04:29:00,
2013-01-31 23:34:00,27.0,18.2,29.78,SW,225,3.0,8.0,69,-99.99,,,0.44,0.00,VWS V14.01,2013-02-01 04:34:00,
2013-01-31 23:39:00,27.0,18.5,29.78,SW,225,7.0,15.0,70,-99.99,,,0.44,0.00,VWS V14.01,2013-02-01 04:39:00,
2013-01-31 23:44:00,26.0,17.9,29.78,SSW,202,6.0,13.0,71,-99.99,,,0.44,0.00,VWS V14.01,2013-02-01 04:44:00,
2013-01-31 23:49:00,26.0,18.2,29.78,South,180,6.0,14.0,72,-99.99,,,0.44,0.00,VWS V14.01,2013-02-01 04:49:00,
2013-01-31 23:54:00,26.0,18.5,29.78,SW,225,5.0,17.0,73,-99.99,,,0.44,0.00,VWS V14.01,2013-02-01 04:54:00,
2013-01-31 23:59:00,26.0,18.5,29.79,South,180,6.0,15.0,73,-99.99,,,0.44,0.00,VWS V14.01,2013-02-01 04:59:00,